Time;durP1;ratioP1;P1;durP2;ratioP2;P2;SDS_P1;SDS_P2;PMS_P1;PMS_P2;Temp;Humidity;BMP_temperature;BMP_pressure;BME280_temperature;BME280_humidity;BME280_pressure;Samples;Min_cycle;Max_cycle;Signal;HPM_P1;HPM_P2
2023/07/21 12:12:34;;;;;;;13.47;12.93;;;26.90;48.70;;;;;;6201910;22;20458;-76
2023/07/21 12:15:01;;;;;;;13.27;12.63;;;26.80;49.30;;;;;;6267078;22;20517;-76
2023/07/21 12:17:28;;;;;;;13.57;12.83;;;26.70;51.60;;;;;;6274575;22;20474;-77
2023/07/21 12:19:55;;;;;;;20.00;19.00;;;26.60;52.10;;;;;;6275453;22;20480;-83
2023/07/21 12:22:24;;;;;;;20.03;19.13;;;26.30;63.80;;;;;;6275452;22;20410;-81
2023/07/21 12:24:51;;;;;;;19.43;18.63;;;25.70;66.70;;;;;;6275735;22;20456;-82
2023/07/21 12:27:18;;;;;;;18.77;17.97;;;25.20;73.10;;;;;;6275244;22;20406;-78
2023/07/21 12:29:46;;;;;;;15.67;14.87;;;24.80;78.00;;;;;;6274603;22;20413;-77
2023/07/21 12:32:13;;;;;;;13.20;12.40;;;24.30;78.70;;;;;;6274985;22;20430;-75
2023/07/21 12:34:41;;;;;;;12.77;12.17;;;23.80;74.00;;;;;;6274736;22;20415;-75
2023/07/21 12:37:08;;;;;;;12.80;12.40;;;24.10;75.00;;;;;;6274484;22;20434;-74
2023/07/21 12:39:36;;;;;;;14.30;13.60;;;24.50;72.20;;;;;;6274740;22;20407;-74
2023/07/21 12:42:03;;;;;;;13.63;13.03;;;25.00;72.10;;;;;;6274972;22;20403;-74
2023/07/21 12:44:30;;;;;;;13.93;13.13;;;25.00;73.70;;;;;;6274678;22;21068;-76
2023/07/21 12:46:58;;;;;;;13.73;12.80;;;25.00;75.30;;;;;;6274228;22;20395;-75
2023/07/21 12:49:24;;;;;;;13.00;12.30;;;25.00;74.50;;;;;;6274359;22;21085;-75
2023/07/21 12:51:51;;;;;;;12.63;12.03;;;25.00;71.30;;;;;;6274740;22;20405;-74
2023/07/21 12:54:18;;;;;;;13.27;12.23;;;24.90;72.90;;;;;;6274676;22;20406;-73
2023/07/21 12:56:45;;;;;;;12.90;12.37;;;25.00;73.40;;;;;;6274433;22;20439;-75
2023/07/21 12:59:12;;;;;;;13.40;12.73;;;25.10;73.40;;;;;;6274574;22;20773;-75
2023/07/21 13:01:41;;;;;;;13.57;12.60;;;25.20;72.20;;;;;;6274095;22;20411;-75
2023/07/21 13:04:12;;;;;;;12.77;12.27;;;25.50;71.30;;;;;;6273473;22;20441;-75
2023/07/21 13:06:39;;;;;;;12.80;12.30;;;25.60;71.30;;;;;;6273928;22;20429;-74
2023/07/21 13:09:06;;;;;;;13.00;12.50;;;25.70;71.10;;;;;;6274492;22;20403;-76
2023/07/21 13:11:32;;;;;;;11.97;11.47;;;26.10;68.30;;;;;;6266501;22;20510;-79
2023/07/21 13:14:01;;;;;;;14.07;13.47;;;26.40;68.20;;;;;;6242163;23;20448;-75
2023/07/21 13:16:29;;;;;;;14.17;13.47;;;26.50;66.00;;;;;;6242477;23;20526;-74
2023/07/21 13:18:57;;;;;;;14.07;13.30;;;26.60;63.00;;;;;;6242793;23;20430;-75
2023/07/21 13:21:25;;;;;;;14.43;13.83;;;26.40;61.80;;;;;;6242257;23;20410;-76
2023/07/21 13:23:52;;;;;;;14.43;13.53;;;26.30;59.40;;;;;;6242538;23;20411;-75
2023/07/21 13:26:19;;;;;;;14.33;13.63;;;26.10;60.10;;;;;;6243366;23;20694;-75
2023/07/21 13:28:45;;;;;;;13.93;13.07;;;26.20;60.10;;;;;;6242776;23;20404;-76
2023/07/21 13:31:14;;;;;;;13.63;13.00;;;26.20;59.40;;;;;;6242700;23;20418;-77
2023/07/21 13:33:41;;;;;;;13.70;13.17;;;26.30;59.90;;;;;;6242332;23;20466;-77
2023/07/21 13:36:09;;;;;;;14.63;13.80;;;26.10;60.60;;;;;;6243006;22;20404;-77
2023/07/21 13:38:38;;;;;;;14.53;13.63;;;26.10;60.80;;;;;;6242187;23;20408;-76
2023/07/21 13:41:09;;;;;;;15.73;14.87;;;26.00;62.70;;;;;;6244987;22;20415;-76
2023/07/21 13:43:36;;;;;;;16.30;15.00;;;25.90;62.20;;;;;;6243557;23;20432;-75
2023/07/21 13:46:04;;;;;;;14.80;14.00;;;26.00;62.00;;;;;;6244233;23;20404;-76
2023/07/21 13:48:31;;;;;;;14.50;13.43;;;26.10;61.30;;;;;;6244769;23;20414;-78
2023/07/21 13:51:00;;;;;;;14.10;13.03;;;26.20;61.70;;;;;;6244793;22;20408;-78
2023/07/21 13:53:27;;;;;;;14.00;13.30;;;25.90;62.40;;;;;;6245788;23;20465;-75
2023/07/21 13:55:56;;;;;;;14.03;13.13;;;25.60;64.80;;;;;;6256546;23;20786;-77
2023/07/21 13:58:22;;;;;;;14.10;13.30;;;24.90;66.70;;;;;;6254745;22;20946;-76
2023/07/21 14:00:53;;;;;;;15.77;14.33;;;24.70;68.20;;;;;;6253393;23;20403;-76
2023/07/21 14:03:19;;;;;;;13.50;12.80;;;24.60;69.20;;;;;;6255571;23;20742;-76
2023/07/21 14:05:47;;;;;;;13.90;13.10;;;24.20;71.10;;;;;;6252987;23;20415;-75
2023/07/21 14:08:15;;;;;;;15.10;13.70;;;24.00;72.80;;;;;;6252886;23;20949;-76
2023/07/21 14:10:45;;;;;;;14.73;13.60;;;23.50;73.80;;;;;;6251398;22;20481;-76
2023/07/21 14:13:13;;;;;;;13.00;12.40;;;23.10;75.80;;;;;;6244761;22;20475;-77
2023/07/21 14:15:44;;;;;;;13.13;12.53;;;22.80;78.70;;;;;;6243653;23;20432;-80
2023/07/21 14:18:12;;;;;;;13.27;12.47;;;22.50;82.80;;;;;;6243085;23;20531;-76
2023/07/21 14:20:39;;;;;;;12.27;11.17;;;22.40;85.50;;;;;;6242985;22;20500;-76
2023/07/21 14:23:06;;;;;;;12.17;11.37;;;22.00;87.30;;;;;;6242549;23;20474;-76
2023/07/21 14:25:34;;;;;;;12.10;11.40;;;21.70;90.10;;;;;;6244511;23;20470;-80
2023/07/21 14:28:01;;;;;;;15.20;14.50;;;21.50;92.00;;;;;;6244781;23;20412;-76
2023/07/21 14:30:31;;;;;;;22.67;21.37;;;21.40;97.50;;;;;;6249820;22;20415;-81
2023/07/21 14:33:01;;;;;;;22.00;20.90;;;20.60;99.90;;;;;;6248529;22;20464;-81
2023/07/21 14:35:28;;;;;;;18.30;17.30;;;19.90;99.90;;;;;;6249048;22;20432;-78
2023/07/21 14:37:57;;;;;;;14.90;14.10;;;19.50;99.90;;;;;;6246304;23;20439;-78
2023/07/21 14:40:24;;;;;;;11.20;10.77;;;19.40;99.90;;;;;;6244559;23;20403;-77
2023/07/21 14:42:51;;;;;;;13.80;12.77;;;19.40;99.90;;;;;;6242737;23;20412;-76
2023/07/21 14:45:18;;;;;;;14.27;13.30;;;19.50;99.90;;;;;;6243051;23;20407;-76
2023/07/21 14:47:46;;;;;;;16.40;15.60;;;19.70;99.90;;;;;;6242115;22;20406;-84
2023/07/21 14:50:17;;;;;;;27.57;26.17;;;19.60;99.90;;;;;;6242643;22;20412;-77
2023/07/21 14:52:47;;;;;;;32.07;29.97;;;19.20;99.90;;;;;;6242108;23;20408;-73
2023/07/21 14:55:14;;;;;;;36.03;33.37;;;18.60;99.90;;;;;;6241651;23;20412;-74
2023/07/21 14:57:44;;;;;;;35.83;33.43;;;17.90;99.90;;;;;;6241866;23;20759;-72
2023/07/21 15:00:20;;;;;;;36.60;34.10;;;17.40;99.90;;;;;;6242137;23;20407;-73
2023/07/21 15:02:51;;;;;;;38.03;35.13;;;17.20;99.90;;;;;;6242304;23;20432;-73
2023/07/21 15:05:18;;;;;;;38.30;35.70;;;17.10;99.90;;;;;;6241382;23;20422;-72
2023/07/21 15:07:46;;;;;;;40.77;37.77;;;17.10;99.90;;;;;;6241869;23;20408;-73
2023/07/21 15:10:16;;;;;;;39.90;37.33;;;17.00;99.90;;;;;;6241329;23;20411;-72
2023/07/21 15:12:43;;;;;;;38.77;36.40;;;16.90;99.90;;;;;;6241622;22;20432;-72
2023/07/21 15:15:11;;;;;;;40.00;37.60;;;16.80;99.90;;;;;;6241188;22;20505;-73
2023/07/21 15:17:38;;;;;;;39.37;36.87;;;16.70;99.90;;;;;;6242061;22;20443;-73
2023/07/21 15:20:13;;;;;;;39.37;36.67;;;16.90;99.90;;;;;;6242536;23;20879;-74
2023/07/21 15:22:40;;;;;;;40.77;38.00;;;16.90;99.90;;;;;;6242266;22;20408;-74
2023/07/21 15:25:09;;;;;;;39.67;37.27;;;17.10;99.90;;;;;;6241918;23;20443;-73
2023/07/21 15:27:42;;;;;;;39.17;36.97;;;16.90;99.90;;;;;;6242246;23;20404;-73
2023/07/21 15:30:10;;;;;;;42.93;40.23;;;16.80;99.90;;;;;;6243881;22;20396;-73
2023/07/21 15:32:37;;;;;;;41.30;38.70;;;16.80;99.90;;;;;;6244185;23;20425;-75
2023/07/21 15:35:08;;;;;;;40.70;38.30;;;16.90;99.90;;;;;;6244235;23;20732;-73
2023/07/21 15:37:35;;;;;;;40.03;37.73;;;16.90;99.90;;;;;;6237719;22;20451;-76
2023/07/21 15:40:09;;;;;;;39.97;37.73;;;16.90;99.90;;;;;;6244288;23;20415;-76
2023/07/21 15:42:38;;;;;;;41.77;39.30;;;17.00;99.90;;;;;;6243752;23;20387;-76
2023/07/21 15:45:07;;;;;;;40.43;38.23;;;17.10;99.90;;;;;;6243830;23;20929;-76
2023/07/21 15:47:39;;;;;;;40.43;37.93;;;17.20;99.90;;;;;;6244433;22;20742;-76
2023/07/21 15:50:11;;;;;;;40.20;38.20;;;17.20;99.90;;;;;;6243716;23;20392;-75
2023/07/21 15:52:41;;;;;;;39.90;37.80;;;17.30;99.90;;;;;;6243584;23;20729;-76
2023/07/21 15:55:10;;;;;;;37.60;35.70;;;17.50;99.90;;;;;;6243669;23;20389;-75
2023/07/21 15:57:40;;;;;;;34.10;32.50;;;17.70;99.90;;;;;;6243283;22;20439;-76
2023/07/21 16:00:13;;;;;;;32.77;31.20;;;17.70;99.90;;;;;;6242464;22;20450;-77
2023/07/21 16:02:40;;;;;;;30.00;28.10;;;17.90;99.90;;;;;;6238192;22;20538;-77
2023/07/21 16:05:07;;;;;;;29.13;27.83;;;18.00;99.90;;;;;;6237485;23;20911;-78
2023/07/21 16:07:35;;;;;;;27.87;26.67;;;18.30;99.90;;;;;;6244056;22;20404;-76
2023/07/21 16:10:04;;;;;;;26.57;25.47;;;18.70;99.90;;;;;;6244190;23;20422;-78
2023/07/21 16:12:31;;;;;;;24.27;23.17;;;19.00;99.90;;;;;;6243880;22;20442;-80
2023/07/21 16:14:58;;;;;;;22.80;21.57;;;19.30;99.90;;;;;;6243782;23;20526;-81
2023/07/21 16:17:24;;;;;;;21.43;20.33;;;19.60;99.90;;;;;;6243763;23;20831;-80
2023/07/21 16:19:51;;;;;;;20.70;19.60;;;19.70;99.90;;;;;;6244805;23;20420;-83
2023/07/21 16:22:18;;;;;;;19.60;18.70;;;19.80;99.90;;;;;;6245259;23;21009;-83
2023/07/21 16:24:46;;;;;;;18.00;17.20;;;19.90;99.90;;;;;;6247169;23;20400;-82
2023/07/21 16:27:13;;;;;;;17.13;16.43;;;19.80;99.90;;;;;;6244604;23;20487;-80
2023/07/21 16:29:40;;;;;;;16.67;15.83;;;19.70;99.90;;;;;;6244173;23;20408;-82
2023/07/21 16:32:08;;;;;;;16.70;16.00;;;19.70;99.90;;;;;;6244530;23;20411;-83
2023/07/21 16:34:35;;;;;;;15.50;14.80;;;19.80;99.90;;;;;;6247651;23;20411;-80
2023/07/21 16:37:03;;;;;;;16.33;15.53;;;19.80;99.90;;;;;;6245319;23;20470;-82
2023/07/21 16:39:30;;;;;;;14.90;14.20;;;19.60;99.90;;;;;;6244535;22;20412;-81
2023/07/21 16:41:58;;;;;;;15.03;14.40;;;19.60;99.90;;;;;;6244146;23;20707;-82
2023/07/21 16:44:27;;;;;;;14.63;14.00;;;19.60;99.90;;;;;;6243846;23;20934;-82
2023/07/21 16:46:54;;;;;;;14.50;13.90;;;19.70;99.90;;;;;;6243928;23;20420;-85
2023/07/21 16:49:20;;;;;;;15.37;14.77;;;19.70;99.90;;;;;;6244463;23;20428;-83
2023/07/21 16:51:48;;;;;;;16.03;15.23;;;19.60;99.90;;;;;;6243890;22;20411;-83
2023/07/21 16:54:14;;;;;;;15.10;14.50;;;19.60;99.90;;;;;;6243919;23;20407;-84
2023/07/21 16:56:44;;;;;;;15.70;14.77;;;19.90;99.90;;;;;;6242460;23;20909;-83
2023/07/21 16:59:13;;;;;;;14.33;13.73;;;20.10;99.90;;;;;;6242109;23;21038;-82
2023/07/21 17:01:42;;;;;;;14.30;13.70;;;20.20;99.90;;;;;;6243179;23;20503;-82
2023/07/21 17:04:12;;;;;;;13.43;12.90;;;20.50;99.90;;;;;;6243599;23;20419;-83
2023/07/21 17:06:39;;;;;;;14.90;14.20;;;20.40;99.90;;;;;;6239487;22;20448;-81
2023/07/21 17:09:06;;;;;;;14.43;13.83;;;20.50;99.90;;;;;;6243593;22;20404;-81
2023/07/21 17:11:35;;;;;;;14.40;13.80;;;20.40;99.90;;;;;;6242374;22;20439;-83
2023/07/21 17:14:03;;;;;;;14.73;14.13;;;20.40;99.90;;;;;;6243534;22;20494;-83
2023/07/21 17:16:34;;;;;;;15.30;14.50;;;20.40;99.90;;;;;;6243746;23;20495;-82
2023/07/21 17:19:01;;;;;;;14.83;14.03;;;20.40;99.90;;;;;;6244587;23;20431;-84
2023/07/21 17:21:29;;;;;;;14.53;13.87;;;20.50;99.90;;;;;;6244834;23;20411;-86
2023/07/21 17:23:58;;;;;;;14.60;13.90;;;20.60;99.90;;;;;;6244335;23;20412;-84
2023/07/21 17:26:25;;;;;;;14.03;13.43;;;20.50;99.90;;;;;;6243868;23;20491;-85
2023/07/21 17:28:52;;;;;;;14.77;14.07;;;20.60;99.90;;;;;;6243487;23;20404;-84
2023/07/21 17:31:20;;;;;;;14.23;13.70;;;20.70;99.90;;;;;;6243705;23;20408;-86
2023/07/21 17:33:50;;;;;;;14.30;13.70;;;20.90;99.90;;;;;;6244313;23;20408;-84
2023/07/21 17:36:16;;;;;;;14.03;13.53;;;20.70;99.90;;;;;;6244438;23;20408;-85
2023/07/21 17:38:43;;;;;;;14.40;13.77;;;20.60;99.90;;;;;;6243080;23;20440;-83
2023/07/21 17:41:10;;;;;;;14.83;13.90;;;20.50;99.90;;;;;;6242540;23;20412;-82
2023/07/21 17:43:37;;;;;;;14.73;14.00;;;20.50;99.90;;;;;;6242500;23;20412;-81
2023/07/21 17:46:05;;;;;;;14.60;14.10;;;20.40;99.90;;;;;;6243141;23;20392;-82
2023/07/21 17:48:32;;;;;;;14.30;13.53;;;20.40;99.90;;;;;;6243053;23;20466;-81
2023/07/21 17:51:03;;;;;;;13.87;13.37;;;20.30;99.90;;;;;;6241211;23;20910;-80
2023/07/21 17:53:30;;;;;;;14.50;13.90;;;20.20;99.90;;;;;;6241019;23;20734;-81
2023/07/21 17:55:57;;;;;;;14.13;13.53;;;20.20;99.90;;;;;;6242438;23;20426;-78
2023/07/21 17:58:23;;;;;;;14.30;13.80;;;20.00;99.90;;;;;;6241442;23;20439;-79
2023/07/21 18:00:51;;;;;;;14.13;13.53;;;20.10;99.90;;;;;;6241917;23;20745;-82
2023/07/21 18:03:18;;;;;;;14.80;14.20;;;20.20;99.90;;;;;;6242608;23;20412;-81
2023/07/21 18:05:46;;;;;;;14.00;13.50;;;20.20;99.90;;;;;;6246093;23;20411;-80
2023/07/21 18:08:14;;;;;;;13.60;13.00;;;20.30;99.90;;;;;;6246312;23;20491;-82
2023/07/21 18:10:41;;;;;;;13.03;12.47;;;20.50;99.90;;;;;;6246764;23;20808;-83
2023/07/21 18:13:22;;;;;;;13.30;12.70;;;20.60;99.90;;;;;;6242771;22;20444;-82
2023/07/21 18:15:49;;;;;;;14.40;13.80;;;20.60;99.90;;;;;;6245823;23;20403;-82
2023/07/21 18:18:16;;;;;;;14.73;14.13;;;20.60;99.90;;;;;;6245349;23;20936;-81
2023/07/21 18:20:43;;;;;;;13.83;13.33;;;20.70;99.90;;;;;;6246689;23;20444;-82
2023/07/21 18:23:09;;;;;;;13.50;12.93;;;20.70;99.90;;;;;;6268369;22;20398;-81
2023/07/21 18:25:42;;;;;;;14.13;13.63;;;20.60;99.90;;;;;;6266471;22;20392;-79
2023/07/21 18:28:14;;;;;;;13.37;12.87;;;20.60;99.90;;;;;;6267153;23;20412;-80
2023/07/21 18:30:41;;;;;;;13.83;13.23;;;20.50;99.90;;;;;;6267000;23;20715;-80
2023/07/21 18:33:08;;;;;;;13.67;13.10;;;20.40;99.90;;;;;;6265333;23;20408;-79
2023/07/21 18:35:35;;;;;;;13.83;13.33;;;20.20;99.90;;;;;;6265480;23;20426;-79
2023/07/21 18:38:02;;;;;;;14.77;14.17;;;20.00;99.90;;;;;;6261000;23;20446;-79
2023/07/21 18:40:29;;;;;;;14.80;14.20;;;19.90;99.90;;;;;;6249995;23;20408;-80
2023/07/21 18:42:59;;;;;;;14.17;13.50;;;19.70;99.90;;;;;;6245132;23;20414;-78
2023/07/21 18:45:29;;;;;;;15.10;14.50;;;19.60;99.90;;;;;;6243428;23;20392;-80
2023/07/21 18:47:56;;;;;;;14.23;13.60;;;19.50;99.90;;;;;;6242883;23;20411;-80
2023/07/21 18:50:24;;;;;;;15.47;14.77;;;19.50;99.90;;;;;;6242769;23;20418;-80
2023/07/21 18:52:51;;;;;;;13.60;12.90;;;19.40;99.90;;;;;;6243121;23;20490;-78
2023/07/21 18:55:18;;;;;;;14.90;14.30;;;19.30;99.90;;;;;;6242794;23;20419;-78
2023/07/21 18:57:45;;;;;;;15.30;14.50;;;19.30;99.90;;;;;;6242030;23;20457;-80
2023/07/21 19:00:14;;;;;;;15.73;14.83;;;19.20;99.90;;;;;;6242309;23;20412;-79
2023/07/21 19:02:41;;;;;;;14.97;14.27;;;19.20;99.90;;;;;;6241997;23;20675;-79
2023/07/21 19:05:10;;;;;;;15.00;14.40;;;19.10;99.90;;;;;;6242155;23;20474;-81
2023/07/21 19:07:37;;;;;;;14.80;14.00;;;19.00;99.90;;;;;;6244336;23;20473;-76
2023/07/21 19:10:05;;;;;;;14.83;13.93;;;19.00;99.90;;;;;;6243025;23;20396;-78
2023/07/21 19:12:31;;;;;;;14.63;14.03;;;18.90;99.90;;;;;;6242955;22;20457;-81
2023/07/21 19:14:59;;;;;;;14.17;13.57;;;18.80;99.90;;;;;;6242879;23;20530;-80
2023/07/21 19:17:33;;;;;;;15.00;14.40;;;18.80;99.90;;;;;;6242538;23;20438;-81
2023/07/21 19:20:06;;;;;;;15.93;15.03;;;18.70;99.90;;;;;;6236915;23;20753;-82
2023/07/21 19:22:33;;;;;;;14.63;14.07;;;18.70;99.90;;;;;;6242292;23;20400;-77
2023/07/21 19:24:59;;;;;;;16.50;15.70;;;18.60;99.90;;;;;;6242798;23;20400;-79
2023/07/21 19:27:28;;;;;;;15.73;14.93;;;18.60;99.90;;;;;;6241913;23;20925;-76
2023/07/21 19:29:55;;;;;;;15.90;15.20;;;18.50;99.90;;;;;;6242037;23;20913;-78
2023/07/21 19:32:22;;;;;;;15.67;14.87;;;18.40;99.90;;;;;;6241911;23;20404;-77
2023/07/21 19:34:50;;;;;;;15.10;14.40;;;18.30;99.90;;;;;;6242119;23;20407;-77
2023/07/21 19:37:19;;;;;;;14.67;14.07;;;18.30;99.90;;;;;;6242212;23;20419;-82
2023/07/21 19:39:46;;;;;;;16.13;15.33;;;18.30;99.90;;;;;;6242417;23;20448;-78
2023/07/21 19:42:14;;;;;;;15.90;15.10;;;18.20;99.90;;;;;;6242473;23;20523;-79
2023/07/21 19:44:44;;;;;;;15.27;14.67;;;18.10;99.90;;;;;;6241950;23;20905;-79
2023/07/21 19:47:11;;;;;;;16.13;15.23;;;18.00;99.90;;;;;;6241793;23;20473;-76
2023/07/21 19:49:38;;;;;;;17.63;16.70;;;17.90;99.90;;;;;;6242176;23;20768;-77
2023/07/21 19:52:08;;;;;;;16.87;16.07;;;17.80;99.90;;;;;;6243445;23;20403;-83
2023/07/21 19:54:56;;;;;;;16.63;15.90;;;17.80;99.90;;;;;;6245151;23;20408;-81
2023/07/21 19:57:23;;;;;;;17.70;16.90;;;17.80;99.90;;;;;;6237762;23;20438;-83
2023/07/21 19:59:50;;;;;;;16.20;15.50;;;17.60;99.90;;;;;;6242510;23;20554;-78
2023/07/21 20:02:17;;;;;;;16.10;15.50;;;17.60;99.90;;;;;;6242847;23;20411;-77
2023/07/21 20:04:47;;;;;;;17.10;16.10;;;17.60;99.90;;;;;;6242655;23;20473;-76
2023/07/21 20:07:15;;;;;;;16.03;15.33;;;17.50;99.90;;;;;;6242339;23;20416;-78
2023/07/21 20:09:42;;;;;;;16.87;15.87;;;17.40;99.90;;;;;;6242472;23;20911;-78
2023/07/21 20:12:09;;;;;;;16.87;16.17;;;17.30;99.90;;;;;;6241551;22;20518;-76
2023/07/21 20:14:39;;;;;;;17.13;16.13;;;17.20;99.90;;;;;;6242549;23;20454;-79
2023/07/21 20:17:09;;;;;;;17.27;16.40;;;17.20;99.90;;;;;;6244047;23;20439;-78
2023/07/21 20:19:36;;;;;;;18.10;17.10;;;17.10;99.90;;;;;;6243584;23;20450;-79
2023/07/21 20:22:03;;;;;;;17.50;16.60;;;17.10;99.90;;;;;;6243851;23;20410;-81
2023/07/21 20:24:31;;;;;;;17.40;16.50;;;17.00;99.90;;;;;;6243737;23;20732;-79
2023/07/21 20:26:58;;;;;;;18.07;17.20;;;17.00;99.90;;;;;;6243534;23;20411;-80
2023/07/21 20:29:25;;;;;;;18.60;17.50;;;17.00;99.90;;;;;;6243386;23;20404;-78
2023/07/21 20:31:51;;;;;;;16.93;16.13;;;17.00;99.90;;;;;;6243792;23;20411;-79
2023/07/21 20:34:18;;;;;;;18.97;17.70;;;17.00;99.90;;;;;;6243736;23;20411;-78
2023/07/21 20:36:47;;;;;;;17.13;16.03;;;17.00;99.90;;;;;;6243410;23;20809;-77
2023/07/21 20:39:13;;;;;;;18.20;17.30;;;17.00;99.90;;;;;;6243159;23;20447;-79
2023/07/21 20:41:41;;;;;;;17.37;16.47;;;17.00;99.90;;;;;;6243516;23;20408;-78
2023/07/21 20:44:08;;;;;;;17.33;16.40;;;17.00;99.90;;;;;;6243503;23;20412;-76
2023/07/21 20:46:35;;;;;;;17.10;16.40;;;17.00;99.90;;;;;;6243084;23;20903;-77
2023/07/21 20:49:01;;;;;;;18.37;17.37;;;16.90;99.90;;;;;;6243803;23;20505;-77
2023/07/21 20:51:28;;;;;;;17.87;17.07;;;16.80;99.90;;;;;;6243610;23;20412;-78
2023/07/21 20:53:55;;;;;;;18.10;16.93;;;16.80;99.90;;;;;;6243536;23;20454;-78
2023/07/21 20:56:21;;;;;;;17.83;16.83;;;16.80;99.90;;;;;;6243277;23;20911;-77
2023/07/21 20:58:49;;;;;;;19.33;18.20;;;16.80;99.90;;;;;;6243674;23;20443;-77
2023/07/21 21:01:16;;;;;;;18.47;17.47;;;16.80;99.90;;;;;;6243768;23;20419;-78
2023/07/21 21:03:43;;;;;;;17.67;16.70;;;16.70;99.90;;;;;;6243449;23;20408;-76
2023/07/21 21:06:10;;;;;;;17.60;16.70;;;16.70;99.90;;;;;;6242992;23;20733;-77
2023/07/21 21:08:36;;;;;;;18.87;17.67;;;16.70;99.90;;;;;;6243323;23;20408;-77
2023/07/21 21:11:04;;;;;;;19.37;18.27;;;16.70;99.90;;;;;;6242896;23;20408;-76
2023/07/21 21:13:31;;;;;;;19.13;18.13;;;16.70;99.90;;;;;;6243055;22;20855;-79
2023/07/21 21:16:00;;;;;;;17.47;16.67;;;16.70;99.90;;;;;;6243116;23;20411;-79
2023/07/21 21:18:27;;;;;;;18.07;17.17;;;16.60;99.90;;;;;;6242679;23;20420;-78
2023/07/21 21:20:54;;;;;;;19.37;18.40;;;16.60;99.90;;;;;;6243368;23;20408;-79
2023/07/21 21:23:20;;;;;;;17.50;16.70;;;16.60;99.90;;;;;;6242977;23;20407;-77
2023/07/21 21:25:51;;;;;;;17.87;17.03;;;16.70;99.90;;;;;;6242584;23;20423;-80
2023/07/21 21:28:17;;;;;;;18.57;17.60;;;16.60;99.90;;;;;;6243206;23;20431;-78
2023/07/21 21:30:44;;;;;;;17.53;16.73;;;16.60;99.90;;;;;;6242959;23;20412;-79
2023/07/21 21:33:14;;;;;;;18.47;17.40;;;16.60;99.90;;;;;;6242878;23;20935;-78
2023/07/21 21:35:41;;;;;;;19.20;18.00;;;16.60;99.90;;;;;;6244665;23;20461;-79
2023/07/21 21:38:07;;;;;;;17.40;16.60;;;16.50;99.90;;;;;;6242971;23;20412;-79
2023/07/21 21:40:34;;;;;;;17.67;16.97;;;16.50;99.90;;;;;;6243202;23;20447;-79
2023/07/21 21:43:01;;;;;;;18.10;17.10;;;16.50;99.90;;;;;;6243545;23;20495;-80
2023/07/21 21:45:28;;;;;;;18.37;17.50;;;16.50;99.90;;;;;;6243030;23;20406;-80
2023/07/21 21:47:54;;;;;;;17.00;16.20;;;16.50;99.90;;;;;;6243227;23;20443;-80
2023/07/21 21:50:22;;;;;;;17.90;17.00;;;16.50;99.90;;;;;;6243208;23;20416;-77
2023/07/21 21:52:49;;;;;;;18.63;17.33;;;16.50;99.90;;;;;;6254923;23;20929;-81
2023/07/21 21:55:16;;;;;;;18.60;17.60;;;16.40;99.90;;;;;;6243897;23;20408;-79
2023/07/21 21:57:42;;;;;;;18.73;17.83;;;16.40;99.90;;;;;;6242574;23;20926;-79
2023/07/21 22:00:10;;;;;;;17.80;16.90;;;16.40;99.90;;;;;;6242816;23;20435;-79
2023/07/21 22:02:37;;;;;;;17.60;16.80;;;16.30;99.90;;;;;;6242781;23;20713;-75
2023/07/21 22:05:04;;;;;;;18.40;17.57;;;16.30;99.90;;;;;;6242623;23;20414;-76
2023/07/21 22:07:32;;;;;;;18.97;18.07;;;16.30;99.90;;;;;;6242907;23;20412;-76
2023/07/21 22:09:58;;;;;;;20.70;19.60;;;16.30;99.90;;;;;;6242604;23;20411;-76
2023/07/21 22:12:25;;;;;;;19.47;18.47;;;16.30;99.90;;;;;;6242121;22;20424;-76
2023/07/21 22:14:52;;;;;;;18.83;18.03;;;16.30;99.90;;;;;;6242334;23;20435;-76
2023/07/21 22:17:19;;;;;;;20.63;19.30;;;16.20;99.90;;;;;;6242533;23;20419;-78
2023/07/21 22:19:46;;;;;;;19.57;18.50;;;16.20;99.90;;;;;;6242546;23;20524;-78
2023/07/21 22:22:13;;;;;;;20.13;18.97;;;16.20;99.90;;;;;;6242734;23;20490;-78
2023/07/21 22:24:41;;;;;;;19.90;18.87;;;16.20;99.90;;;;;;6242476;23;20407;-77
2023/07/21 22:27:07;;;;;;;18.60;17.70;;;16.20;99.90;;;;;;6242089;23;20415;-77
2023/07/21 22:29:34;;;;;;;20.00;18.90;;;16.20;99.90;;;;;;6242104;23;20407;-77
2023/07/21 22:32:01;;;;;;;19.10;18.10;;;16.10;99.90;;;;;;6242494;23;20415;-78
2023/07/21 22:34:28;;;;;;;17.80;16.80;;;16.10;99.90;;;;;;6242491;23;20403;-77
2023/07/21 22:36:55;;;;;;;18.80;17.80;;;16.10;99.90;;;;;;6242432;23;20758;-78
2023/07/21 22:39:23;;;;;;;19.67;18.67;;;16.10;99.90;;;;;;6242461;23;20440;-77
2023/07/21 22:41:51;;;;;;;19.30;18.20;;;16.10;99.90;;;;;;6242722;23;20415;-78
2023/07/21 22:44:18;;;;;;;18.40;17.27;;;16.10;99.90;;;;;;6242807;23;20415;-77
2023/07/21 22:46:44;;;;;;;20.43;19.03;;;16.10;99.90;;;;;;6242276;23;20407;-78
2023/07/21 22:49:11;;;;;;;18.87;17.80;;;16.10;99.90;;;;;;6242379;23;20494;-79
2023/07/21 22:51:38;;;;;;;19.67;18.40;;;16.10;99.90;;;;;;6242597;23;20781;-78
2023/07/21 22:54:05;;;;;;;20.03;18.83;;;16.00;99.90;;;;;;6241763;23;20481;-75
2023/07/21 22:56:32;;;;;;;19.77;18.20;;;16.10;99.90;;;;;;6242455;23;20419;-77
2023/07/21 22:59:00;;;;;;;18.90;17.90;;;16.10;99.90;;;;;;6242150;23;20404;-77
2023/07/21 23:01:28;;;;;;;19.73;18.63;;;16.10;99.90;;;;;;6242315;23;20462;-77
2023/07/21 23:03:56;;;;;;;18.63;17.63;;;16.10;99.90;;;;;;6242491;23;20416;-78
2023/07/21 23:06:23;;;;;;;19.47;18.40;;;16.00;99.90;;;;;;6242387;23;20407;-78
2023/07/21 23:08:50;;;;;;;20.03;18.83;;;16.00;99.90;;;;;;6242588;23;20404;-78
2023/07/21 23:11:17;;;;;;;20.03;18.67;;;16.00;99.90;;;;;;6242480;22;20408;-78
2023/07/21 23:13:45;;;;;;;18.47;17.57;;;16.00;99.90;;;;;;6242061;23;20447;-78
2023/07/21 23:16:13;;;;;;;19.97;18.87;;;16.00;99.90;;;;;;6242357;23;20744;-78
2023/07/21 23:18:40;;;;;;;18.97;18.07;;;16.00;99.90;;;;;;6242269;23;20414;-79
2023/07/21 23:21:06;;;;;;;18.93;18.03;;;15.90;99.90;;;;;;6242287;23;20526;-78
2023/07/21 23:23:33;;;;;;;19.93;18.77;;;15.90;99.90;;;;;;6242470;23;20407;-78
2023/07/21 23:26:02;;;;;;;19.50;18.60;;;15.90;99.90;;;;;;6242133;23;20462;-78
2023/07/21 23:28:29;;;;;;;19.27;17.97;;;15.90;99.90;;;;;;6242317;23;20412;-78
2023/07/21 23:30:59;;;;;;;18.70;17.80;;;15.90;99.90;;;;;;6242205;23;20404;-78
2023/07/21 23:33:27;;;;;;;19.30;18.30;;;15.90;99.90;;;;;;6242237;23;20476;-78
2023/07/21 23:35:53;;;;;;;19.17;18.20;;;15.90;99.90;;;;;;6242144;23;20439;-79
2023/07/21 23:38:20;;;;;;;19.07;18.17;;;15.90;99.90;;;;;;6242398;23;20403;-78
2023/07/21 23:40:47;;;;;;;20.30;19.23;;;15.90;99.90;;;;;;6242650;23;20451;-78
2023/07/21 23:43:13;;;;;;;20.60;19.43;;;15.90;99.90;;;;;;6242277;23;20713;-79
2023/07/21 23:45:40;;;;;;;19.23;18.03;;;15.90;99.90;;;;;;6242474;23;20404;-79
2023/07/21 23:48:07;;;;;;;21.00;19.60;;;15.80;99.90;;;;;;6241938;23;20903;-79
2023/07/21 23:50:36;;;;;;;20.20;19.20;;;15.80;99.90;;;;;;6244513;23;20403;-80
2023/07/21 23:53:02;;;;;;;21.47;20.37;;;15.70;99.90;;;;;;6244440;23;20798;-78
2023/07/21 23:55:29;;;;;;;21.03;20.03;;;15.70;99.90;;;;;;6243581;23;20427;-78
2023/07/21 23:57:56;;;;;;;20.67;19.67;;;15.60;99.90;;;;;;6244119;23;20416;-78
